createdAt,value
2023-04-07T00:03:16.521Z,56.90
2023-04-07T00:08:19.737Z,50.88
2023-04-07T00:13:22.875Z,51.10
2023-04-07T00:18:27.456Z,45.40
2023-04-07T00:23:30.532Z,49.60
2023-04-07T00:28:33.656Z,45.90
2023-04-07T00:33:38.180Z,48.53
2023-04-07T00:38:41.652Z,47.47
2023-04-07T00:43:46.061Z,42.00
2023-04-07T00:48:50.647Z,45.40
2023-04-07T00:53:54.101Z,43.08
2023-04-07T00:58:57.982Z,33.17
2023-04-07T01:04:05.536Z,32.78
2023-04-07T01:09:12.363Z,33.67
2023-04-07T01:14:17.017Z,30.40
2023-04-07T01:19:33.295Z,29.55
2023-04-07T01:24:43.649Z,26.60
2023-04-07T01:29:50.542Z,18.03
2023-04-07T01:34:54.169Z,25.55
2023-04-07T01:39:57.446Z,26.45
2023-04-07T01:45:02.322Z,33.75
2023-04-07T01:50:06.126Z,29.73
2023-04-07T01:55:09.839Z,29.55
2023-04-07T02:00:20.053Z,25.75
2023-04-07T02:05:29.080Z,25.85
2023-04-07T02:10:34.115Z,30.88
2023-04-07T02:15:39.150Z,28.50
2023-04-07T02:20:43.732Z,31.15
2023-04-07T02:25:48.036Z,33.67
2023-04-07T02:30:52.535Z,34.40
2023-04-07T02:35:55.931Z,28.15
2023-04-07T02:40:59.502Z,32.22
2023-04-07T02:46:07.469Z,31.17
2023-04-07T02:51:10.898Z,33.50
2023-04-07T02:56:13.993Z,27.92
2023-04-07T03:01:18.494Z,32.22
2023-04-07T03:06:21.651Z,32.10
2023-04-07T03:11:36.705Z,32.75
2023-04-07T03:16:41.578Z,41.13
2023-04-07T03:21:47.890Z,39.40
2023-04-07T03:26:51.362Z,39.95
2023-04-07T03:32:02.024Z,37.15
2023-04-07T03:37:05.265Z,36.88
2023-04-07T03:42:11.274Z,37.67
2023-04-07T03:47:16.060Z,39.22
2023-04-07T03:52:22.994Z,39.40
2023-04-07T03:57:30.218Z,38.30
2023-04-07T04:02:34.869Z,33.42
2023-04-07T04:07:39.032Z,39.33
2023-04-07T04:12:42.742Z,49.78
2023-04-07T04:17:50.526Z,42.08
2023-04-07T04:22:54.542Z,36.80
2023-04-07T04:27:58.139Z,34.33
2023-04-07T04:33:04.918Z,37.88
2023-04-07T04:38:17.876Z,33.67
2023-04-07T04:43:28.038Z,30.80
2023-04-07T04:48:33.479Z,57.38
2023-04-07T04:53:36.860Z,45.22
2023-04-07T04:58:46.051Z,42.38
2023-04-07T05:03:56.690Z,38.90
2023-04-07T05:09:04.654Z,37.90
2023-04-07T05:14:16.506Z,41.50
2023-04-07T05:19:29.650Z,40.25
2023-04-07T05:24:38.498Z,38.20
2023-04-07T05:29:41.666Z,39.33
2023-04-07T05:34:53.002Z,36.28
2023-04-07T05:39:59.250Z,31.45
2023-04-07T05:45:02.497Z,42.20
2023-04-07T05:50:08.071Z,33.50
2023-04-07T05:55:12.313Z,46.63
2023-04-07T06:00:16.095Z,43.22
2023-04-07T06:05:24.044Z,43.78
2023-04-07T06:10:30.410Z,40.30
2023-04-07T06:15:33.826Z,43.53
2023-04-07T06:20:38.421Z,44.05
2023-04-07T06:25:41.579Z,44.25
2023-04-07T06:30:44.847Z,45.53
2023-04-07T06:35:51.186Z,41.85
2023-04-07T06:40:54.348Z,43.78
2023-04-07T06:45:57.548Z,42.95
2023-04-07T06:51:02.080Z,32.30
2023-04-07T06:56:06.154Z,36.33
2023-04-07T07:01:09.497Z,35.60
2023-04-07T07:06:14.094Z,31.65
2023-04-07T07:11:17.291Z,30.15
2023-04-07T07:16:20.450Z,18.75
2023-04-07T07:21:25.004Z,25.80
2023-04-07T07:26:28.156Z,17.08
2023-04-07T07:31:31.625Z,17.23
2023-04-07T07:36:36.266Z,18.67
2023-04-07T07:41:39.331Z,20.30
2023-04-07T07:46:42.465Z,14.57
2023-04-07T07:51:47.244Z,19.92
2023-04-07T07:56:50.402Z,16.48
2023-04-07T08:01:53.520Z,13.57
2023-04-07T08:06:58.275Z,18.23
2023-04-07T08:12:01.549Z,15.70
2023-04-07T08:17:04.655Z,15.93
2023-04-07T08:22:09.113Z,17.50
2023-04-07T08:27:12.234Z,16.38
2023-04-07T08:32:15.371Z,15.38
2023-04-07T08:37:19.798Z,20.02
2023-04-07T08:42:23.615Z,17.20
2023-04-07T08:47:27.362Z,19.00
2023-04-07T08:52:34.719Z,14.18
2023-04-07T08:57:37.869Z,15.77
2023-04-07T09:02:41.685Z,23.33
2023-04-07T09:07:46.221Z,24.13
2023-04-07T09:12:49.417Z,18.17
2023-04-07T09:17:52.616Z,23.42
2023-04-07T09:22:57.082Z,19.80
2023-04-07T09:28:01.138Z,22.85
2023-04-07T09:33:04.292Z,20.95
2023-04-07T09:38:09.281Z,17.73
2023-04-07T09:43:16.593Z,20.73
2023-04-07T09:48:20.364Z,16.60
2023-04-07T09:53:42.044Z,17.70
2023-04-07T09:58:46.494Z,16.67
2023-04-07T10:03:51.389Z,15.38
2023-04-07T10:08:56.163Z,16.08
2023-04-07T10:13:59.355Z,14.32
2023-04-07T10:19:02.828Z,15.55
2023-04-07T10:24:15.851Z,16.63
2023-04-07T10:29:19.677Z,17.25
2023-04-07T10:34:37.586Z,15.90
2023-04-07T10:39:42.039Z,16.13
2023-04-07T10:45:04.403Z,17.98
2023-04-07T10:50:19.120Z,17.20
2023-04-07T10:55:36.817Z,14.70
2023-04-07T11:00:39.903Z,13.75
2023-04-07T11:05:43.259Z,14.43
2023-04-07T11:10:49.967Z,13.55
2023-04-07T11:15:53.087Z,17.63
2023-04-07T11:20:58.400Z,21.67
2023-04-07T11:26:03.430Z,14.15
2023-04-07T11:31:06.776Z,17.08
2023-04-07T11:36:09.956Z,15.95
2023-04-07T11:41:15.466Z,22.08
2023-04-07T11:46:19.555Z,16.08
2023-04-07T11:51:23.977Z,14.07
2023-04-07T11:56:30.518Z,15.30
2023-04-07T12:01:40.440Z,13.77
2023-04-07T12:06:43.898Z,13.57
2023-04-07T12:11:51.568Z,14.43
2023-04-07T12:16:56.505Z,12.13
2023-04-07T12:21:59.868Z,16.88
2023-04-07T12:27:04.476Z,16.25
2023-04-07T12:32:07.889Z,17.13
2023-04-07T12:37:11.277Z,13.98
2023-04-07T12:42:15.751Z,19.60
2023-04-07T12:47:18.899Z,20.55
2023-04-07T12:52:22.602Z,18.27
2023-04-07T12:57:27.529Z,16.08
2023-04-07T13:02:31.112Z,16.00
2023-04-07T13:07:35.101Z,18.30
2023-04-07T13:12:41.221Z,15.73
2023-04-07T13:17:44.404Z,53.20
2023-04-07T13:22:50.779Z,13.90
2023-04-07T13:28:05.909Z,17.52
2023-04-07T13:33:09.176Z,22.38
2023-04-07T13:38:12.244Z,16.73
2023-04-07T13:43:18.635Z,14.75
2023-04-07T13:48:21.758Z,21.25
2023-04-07T13:53:24.911Z,15.30
2023-04-07T13:58:31.014Z,13.93
2023-04-07T14:03:35.355Z,15.68
2023-04-07T14:08:38.858Z,17.08
2023-04-07T14:13:43.473Z,15.38
2023-04-07T14:18:46.874Z,16.48
2023-04-07T14:23:49.981Z,15.55
2023-04-07T14:28:54.681Z,16.92
2023-04-07T14:33:57.826Z,14.25
2023-04-07T14:39:01.238Z,13.90
2023-04-07T14:44:06.292Z,10.75
2023-04-07T14:49:09.401Z,14.18
2023-04-07T14:54:12.527Z,13.27
2023-04-07T14:59:16.974Z,12.27
2023-04-07T15:04:20.210Z,16.05
2023-04-07T15:09:23.384Z,17.63
2023-04-07T15:14:27.987Z,11.00
2023-04-07T15:19:31.076Z,11.77
2023-04-07T15:24:34.207Z,12.90
2023-04-07T15:29:38.832Z,13.68
2023-04-07T15:34:41.994Z,14.05
2023-04-07T15:39:45.149Z,13.20
2023-04-07T15:44:49.668Z,13.82
2023-04-07T15:49:52.764Z,10.75
2023-04-07T15:54:56.158Z,11.77
2023-04-07T16:00:00.685Z,12.30
2023-04-07T16:05:03.845Z,14.68
2023-04-07T16:10:08.477Z,11.80
2023-04-07T16:15:13.562Z,12.20
2023-04-07T16:20:16.814Z,14.10
2023-04-07T16:25:19.898Z,11.63
2023-04-07T16:30:25.277Z,15.77
2023-04-07T16:35:29.264Z,16.92
2023-04-07T16:40:32.559Z,16.20
2023-04-07T16:45:37.158Z,18.70
2023-04-07T16:50:42.500Z,21.60
2023-04-07T16:55:46.034Z,20.67
2023-04-07T17:00:51.150Z,21.73
2023-04-07T17:05:54.273Z,22.10
2023-04-07T17:10:57.390Z,17.38
2023-04-07T17:16:02.038Z,24.33
2023-04-07T17:21:05.173Z,12.45
2023-04-07T17:26:08.612Z,13.15
2023-04-07T17:31:14.736Z,15.05
2023-04-07T17:36:17.995Z,15.52
2023-04-07T17:41:21.265Z,17.25
2023-04-07T17:46:25.839Z,14.77
2023-04-07T17:51:28.981Z,25.80
2023-04-07T17:56:32.867Z,19.85
2023-04-07T18:01:37.435Z,16.92
2023-04-07T18:06:40.591Z,19.15
2023-04-07T18:11:43.775Z,18.15
2023-04-07T18:16:48.273Z,22.20
2023-04-07T18:21:53.159Z,23.00
2023-04-07T18:26:57.050Z,22.73
2023-04-07T18:32:01.592Z,23.88
2023-04-07T18:37:04.658Z,24.83
2023-04-07T18:42:07.835Z,26.42
2023-04-07T18:47:12.372Z,26.85
2023-04-07T18:52:15.453Z,23.52
2023-04-07T18:57:18.489Z,25.13
2023-04-07T19:02:23.071Z,24.08
2023-04-07T19:07:26.577Z,28.10
2023-04-07T19:12:29.687Z,28.10
2023-04-07T19:17:34.313Z,28.95
2023-04-07T19:22:37.616Z,23.83
2023-04-07T19:27:41.007Z,26.27
2023-04-07T19:32:45.636Z,31.52
2023-04-07T19:37:48.726Z,24.98
2023-04-07T19:42:51.860Z,29.33
2023-04-07T19:47:56.974Z,28.98
2023-04-07T19:53:00.093Z,23.38
2023-04-07T19:58:03.127Z,26.17
2023-04-07T20:03:07.880Z,24.35
2023-04-07T20:08:11.641Z,29.00
2023-04-07T20:13:14.738Z,26.63
2023-04-07T20:18:21.048Z,25.67
2023-04-07T20:23:24.124Z,25.02
2023-04-07T20:28:27.227Z,25.42
2023-04-07T20:33:31.742Z,29.33
2023-04-07T20:38:35.285Z,23.05
2023-04-07T20:43:38.443Z,24.60
2023-04-07T20:48:43.270Z,26.83
2023-04-07T20:53:46.540Z,26.02
2023-04-07T20:58:49.920Z,27.13
2023-04-07T21:03:54.886Z,22.40
2023-04-07T21:08:58.136Z,25.23
2023-04-07T21:14:01.661Z,30.08
2023-04-07T21:19:06.459Z,22.98
2023-04-07T21:24:09.853Z,39.05
2023-04-07T21:29:13.016Z,30.65
2023-04-07T21:34:17.649Z,24.88
2023-04-07T21:39:20.811Z,23.30
2023-04-07T21:44:23.881Z,36.08
2023-04-07T21:49:28.345Z,22.67
2023-04-07T21:54:31.465Z,26.00
2023-04-07T21:59:35.459Z,25.05
2023-04-07T22:04:40.062Z,29.98
2023-04-07T22:09:43.146Z,39.63
2023-04-07T22:14:46.222Z,30.67
2023-04-07T22:19:50.703Z,31.45
2023-04-07T22:24:53.921Z,35.88
2023-04-07T22:29:57.099Z,40.30
2023-04-07T22:35:01.546Z,74.38
2023-04-07T22:40:04.846Z,113.35
2023-04-07T22:45:08.617Z,51.35
2023-04-07T22:50:13.333Z,37.05
2023-04-07T22:55:16.473Z,38.25
2023-04-07T23:00:19.627Z,45.35
2023-04-07T23:05:24.185Z,47.63
2023-04-07T23:10:27.401Z,25.38
2023-04-07T23:15:30.504Z,37.78
2023-04-07T23:20:34.953Z,65.47
2023-04-07T23:25:38.113Z,21.70
2023-04-07T23:30:41.267Z,43.40
2023-04-07T23:35:45.791Z,42.00
2023-04-07T23:40:48.928Z,47.45
2023-04-07T23:45:52.010Z,34.50
2023-04-07T23:50:56.650Z,34.30
2023-04-07T23:55:59.698Z,38.83
